createdAt,value
2022-09-13T00:01:59.151Z,45.78
2022-09-13T00:04:26.500Z,45.97
2022-09-13T00:06:53.834Z,45.89
2022-09-13T00:09:21.109Z,46.07
2022-09-13T00:11:49.727Z,46.23
2022-09-13T00:14:16.971Z,46.21
2022-09-13T00:16:44.233Z,46.25
2022-09-13T00:19:11.496Z,46.49
2022-09-13T00:21:38.788Z,46.31
2022-09-13T00:24:06.263Z,46.43
2022-09-13T00:26:33.521Z,46.50
2022-09-13T00:29:02.096Z,46.49
2022-09-13T00:31:29.710Z,46.88
2022-09-13T00:33:59.847Z,46.76
2022-09-13T00:36:27.402Z,46.76
2022-09-13T00:38:54.790Z,47.18
2022-09-13T00:41:22.257Z,47.21
2022-09-13T00:43:53.264Z,47.35
2022-09-13T00:46:43.265Z,47.51
2022-09-13T00:49:17.077Z,47.70
2022-09-13T00:51:51.439Z,48.47
2022-09-13T00:54:22.820Z,48.37
2022-09-13T00:56:55.675Z,49.16
2022-09-13T00:59:28.593Z,49.76
2022-09-13T01:01:58.567Z,49.57
2022-09-13T01:04:31.290Z,49.74
2022-09-13T01:07:04.496Z,50.09
2022-09-13T01:09:36.649Z,49.69
2022-09-13T01:12:18.666Z,50.12
2022-09-13T01:14:47.667Z,50.06
2022-09-13T01:17:16.332Z,50.52
2022-09-13T01:19:43.786Z,50.57
2022-09-13T01:22:51.373Z,50.67
2022-09-13T01:26:08.243Z,50.68
2022-09-13T01:29:15.239Z,51.29
2022-09-13T01:31:54.739Z,51.27
2022-09-13T01:34:41.274Z,51.28
2022-09-13T01:37:38.416Z,52.95
2022-09-13T01:40:22.080Z,52.98
2022-09-13T01:43:14.922Z,53.11
2022-09-13T01:45:56.110Z,53.95
2022-09-13T01:48:42.898Z,53.60
2022-09-13T01:51:21.457Z,52.99
2022-09-13T01:54:06.662Z,53.48
2022-09-13T01:56:42.374Z,53.56
2022-09-13T01:59:20.957Z,54.01
2022-09-13T02:01:58.112Z,54.80
2022-09-13T02:04:35.222Z,54.73
2022-09-13T02:07:14.578Z,55.06
2022-09-13T02:09:48.726Z,55.24
2022-09-13T02:12:21.038Z,55.84
2022-09-13T02:14:57.506Z,56.16
2022-09-13T02:17:32.481Z,56.34
2022-09-13T02:20:10.103Z,55.97
2022-09-13T02:22:46.885Z,56.01
2022-09-13T02:25:17.667Z,56.88
2022-09-13T02:27:51.591Z,56.56
2022-09-13T02:30:19.679Z,56.86
2022-09-13T02:32:54.937Z,56.73
2022-09-13T02:35:31.389Z,56.88
2022-09-13T02:38:04.821Z,56.99
2022-09-13T02:40:42.180Z,56.87
2022-09-13T02:43:16.286Z,56.69
2022-09-13T02:45:52.960Z,57.01
2022-09-13T02:48:36.773Z,56.83
2022-09-13T02:51:17.114Z,56.82
2022-09-13T02:53:53.521Z,56.66
2022-09-13T02:56:30.112Z,56.42
2022-09-13T02:59:05.851Z,55.96
2022-09-13T03:01:36.797Z,56.09
2022-09-13T03:04:04.196Z,55.98
2022-09-13T03:06:32.934Z,55.91
2022-09-13T03:09:04.879Z,55.88
2022-09-13T03:11:52.019Z,56.10
2022-09-13T03:14:37.603Z,56.34
2022-09-13T03:17:20.970Z,56.81
2022-09-13T03:20:09.212Z,57.13
2022-09-13T03:23:34.586Z,57.10
2022-09-13T03:26:35.372Z,57.58
2022-09-13T03:29:24.710Z,57.36
2022-09-13T03:32:10.805Z,57.40
2022-09-13T03:34:48.604Z,57.49
2022-09-13T03:37:28.391Z,57.74
2022-09-13T03:40:03.892Z,57.85
2022-09-13T03:42:41.357Z,57.68
2022-09-13T03:45:13.318Z,57.97
2022-09-13T03:47:45.279Z,57.82
2022-09-13T03:50:19.607Z,57.71
2022-09-13T03:52:52.604Z,57.60
2022-09-13T03:55:22.458Z,58.16
2022-09-13T03:57:49.827Z,57.88
2022-09-13T04:00:18.300Z,58.21
2022-09-13T04:02:45.625Z,57.73
2022-09-13T04:05:13.130Z,57.55
2022-09-13T04:07:40.360Z,57.50
2022-09-13T04:10:13.565Z,57.28
2022-09-13T04:12:42.602Z,57.00
2022-09-13T04:15:10.289Z,56.66
2022-09-13T04:17:37.523Z,56.52
2022-09-13T04:20:05.886Z,56.40
2022-09-13T04:22:33.560Z,56.59
2022-09-13T04:25:02.613Z,56.28
2022-09-13T04:27:30.075Z,56.14
2022-09-13T04:29:58.787Z,56.27
2022-09-13T04:32:25.979Z,56.25
2022-09-13T04:34:53.557Z,56.24
2022-09-13T04:37:21.111Z,56.10
2022-09-13T04:39:48.379Z,56.17
2022-09-13T04:42:15.594Z,56.15
2022-09-13T04:44:44.853Z,56.08
2022-09-13T04:47:13.428Z,56.33
2022-09-13T04:49:40.803Z,56.44
2022-09-13T04:52:08.132Z,56.67
2022-09-13T04:54:35.420Z,56.59
2022-09-13T04:57:02.640Z,56.43
2022-09-13T04:59:29.877Z,56.68
2022-09-13T05:01:59.991Z,57.03
2022-09-13T05:04:28.699Z,57.30
2022-09-13T05:06:56.011Z,57.63
2022-09-13T05:09:23.267Z,57.46
2022-09-13T05:11:51.231Z,57.74
2022-09-13T05:14:18.515Z,57.92
2022-09-13T05:16:45.738Z,58.01
2022-09-13T05:19:13.411Z,58.13
2022-09-13T05:21:42.034Z,58.33
2022-09-13T05:24:09.651Z,58.36
2022-09-13T05:26:37.003Z,58.35
2022-09-13T05:29:05.114Z,58.35
2022-09-13T05:31:36.455Z,58.21
2022-09-13T05:34:07.231Z,58.17
2022-09-13T05:36:35.001Z,58.18
2022-09-13T05:39:31.901Z,58.04
2022-09-13T05:41:52.302Z,58.42
2022-09-13T05:44:19.609Z,58.67
2022-09-13T05:46:48.576Z,58.71
2022-09-13T05:49:16.157Z,58.43
2022-09-13T05:51:43.482Z,58.49
2022-09-13T05:54:13.717Z,58.60
2022-09-13T05:56:40.987Z,58.47
2022-09-13T05:59:12.582Z,58.44
2022-09-13T06:01:40.184Z,58.37
2022-09-13T06:04:07.479Z,58.70
2022-09-13T06:06:35.684Z,58.96
2022-09-13T06:09:03.491Z,58.85
2022-09-13T06:11:32.570Z,58.98
2022-09-13T06:14:00.082Z,59.20
2022-09-13T06:16:27.452Z,59.38
2022-09-13T06:18:55.043Z,59.25
2022-09-13T06:21:28.297Z,59.37
2022-09-13T06:23:56.902Z,59.46
2022-09-13T06:26:26.797Z,59.45
2022-09-13T06:28:58.126Z,59.37
2022-09-13T06:31:28.506Z,59.70
2022-09-13T06:33:59.550Z,59.46
2022-09-13T06:36:27.804Z,59.53
2022-09-13T06:38:55.525Z,59.40
2022-09-13T06:41:25.014Z,59.07
2022-09-13T06:43:57.554Z,59.06
2022-09-13T06:46:27.019Z,59.00
2022-09-13T06:48:55.271Z,58.92
2022-09-13T06:51:25.306Z,58.74
2022-09-13T06:53:56.685Z,58.89
2022-09-13T06:56:26.938Z,58.71
2022-09-13T06:58:59.828Z,58.78
2022-09-13T07:01:30.203Z,58.90
2022-09-13T07:04:02.278Z,58.85
2022-09-13T07:06:32.228Z,58.84
2022-09-13T07:09:01.783Z,58.86
2022-09-13T07:11:35.186Z,58.95
2022-09-13T07:14:06.690Z,58.88
2022-09-13T07:16:37.476Z,58.61
2022-09-13T07:19:07.974Z,58.90
2022-09-13T07:21:35.977Z,58.97
2022-09-13T07:24:04.309Z,58.87
2022-09-13T07:26:31.748Z,58.73
2022-09-13T07:29:02.751Z,58.16
2022-09-13T07:31:34.176Z,58.07
2022-09-13T07:34:04.047Z,58.03
2022-09-13T07:36:34.446Z,57.77
2022-09-13T07:39:03.061Z,58.14
2022-09-13T07:41:32.576Z,57.87
2022-09-13T07:44:07.995Z,57.67
2022-09-13T07:46:39.961Z,57.87
2022-09-13T07:49:07.982Z,57.97
2022-09-13T07:51:39.615Z,57.38
2022-09-13T07:54:12.069Z,57.70
2022-09-13T07:56:41.785Z,56.97
2022-09-13T07:59:14.489Z,57.22
2022-09-13T08:01:45.737Z,56.60
2022-09-13T08:04:17.782Z,56.96
2022-09-13T08:06:46.806Z,56.87
2022-09-13T08:09:16.777Z,56.83
2022-09-13T08:11:46.876Z,57.51
2022-09-13T08:14:16.763Z,56.92
2022-09-13T08:16:46.015Z,57.10
2022-09-13T08:19:16.580Z,56.69
2022-09-13T08:21:44.442Z,56.76
2022-09-13T08:24:16.698Z,57.09
2022-09-13T08:26:44.872Z,56.79
2022-09-13T08:29:13.978Z,56.86
2022-09-13T08:31:42.007Z,57.05
2022-09-13T08:34:14.562Z,56.97
2022-09-13T08:36:42.253Z,57.32
2022-09-13T08:39:13.512Z,57.26
2022-09-13T08:42:03.764Z,57.52
2022-09-13T08:44:36.379Z,57.08
2022-09-13T08:47:28.806Z,57.11
2022-09-13T08:50:07.113Z,56.81
2022-09-13T08:52:46.779Z,57.27
2022-09-13T08:55:26.506Z,57.19
2022-09-13T08:58:06.028Z,57.51
2022-09-13T09:00:39.709Z,57.08
2022-09-13T09:03:24.329Z,56.74
2022-09-13T09:05:54.454Z,56.77
2022-09-13T09:08:34.360Z,56.36
2022-09-13T09:11:10.230Z,56.18
2022-09-13T09:13:52.620Z,56.13
2022-09-13T09:16:36.244Z,55.27
2022-09-13T09:19:19.175Z,54.40
2022-09-13T09:21:51.535Z,53.03
2022-09-13T09:24:23.942Z,50.52
2022-09-13T09:26:53.878Z,47.04
2022-09-13T09:29:26.039Z,43.99
2022-09-13T09:32:09.418Z,42.31
2022-09-13T09:34:54.912Z,39.53
2022-09-13T09:37:26.043Z,38.01
2022-09-13T09:40:02.804Z,37.78
2022-09-13T09:42:39.531Z,37.21
2022-09-13T09:45:26.827Z,38.38
2022-09-13T09:47:56.790Z,38.78
2022-09-13T09:50:29.754Z,39.36
2022-09-13T09:53:06.468Z,39.22
2022-09-13T09:55:44.521Z,40.18
2022-09-13T09:58:16.766Z,40.01
2022-09-13T10:00:53.457Z,40.11
2022-09-13T10:03:26.819Z,39.80
2022-09-13T10:06:06.602Z,38.23
2022-09-13T10:08:38.152Z,35.16
2022-09-13T10:11:07.562Z,32.81
2022-09-13T10:13:35.964Z,30.05
2022-09-13T10:16:07.653Z,28.44
2022-09-13T10:18:45.360Z,27.29
2022-09-13T10:21:25.093Z,29.03
2022-09-13T10:24:21.250Z,28.67
2022-09-13T10:26:48.683Z,29.25
2022-09-13T10:29:18.750Z,27.59
2022-09-13T10:31:53.389Z,26.42
2022-09-13T10:34:25.541Z,25.33
2022-09-13T10:36:59.076Z,24.71
2022-09-13T10:39:34.241Z,24.21
2022-09-13T10:42:05.176Z,23.74
2022-09-13T10:44:41.626Z,24.53
2022-09-13T10:47:29.681Z,24.54
2022-09-13T10:49:59.692Z,24.21
2022-09-13T10:52:32.149Z,25.79
2022-09-13T10:55:31.674Z,26.64
2022-09-13T10:58:19.849Z,26.57
2022-09-13T11:01:30.238Z,27.06
2022-09-13T11:04:41.116Z,27.48
2022-09-13T11:07:37.541Z,27.65
2022-09-13T11:10:20.883Z,28.16
2022-09-13T11:12:59.568Z,28.56
2022-09-13T11:15:47.327Z,29.88
2022-09-13T11:19:15.763Z,30.30
2022-09-13T11:22:09.017Z,30.86
2022-09-13T11:25:01.856Z,31.65
2022-09-13T11:27:44.754Z,31.93
2022-09-13T11:30:19.557Z,32.02
2022-09-13T11:33:23.948Z,31.81
2022-09-13T11:36:30.725Z,31.36
2022-09-13T11:39:13.535Z,31.16
2022-09-13T11:41:51.953Z,30.61
2022-09-13T11:44:54.372Z,30.57
2022-09-13T11:47:44.431Z,30.79
2022-09-13T11:50:43.324Z,31.45
2022-09-13T11:53:50.433Z,32.14
2022-09-13T11:56:24.266Z,32.06
2022-09-13T11:58:59.469Z,32.09
2022-09-13T12:01:34.255Z,31.86
2022-09-13T12:04:13.922Z,31.87
2022-09-13T12:06:47.008Z,31.93
2022-09-13T12:09:22.077Z,32.13
2022-09-13T12:11:54.662Z,31.64
2022-09-13T12:14:27.275Z,32.03
2022-09-13T12:17:02.297Z,31.52
2022-09-13T12:19:43.812Z,31.70
2022-09-13T12:22:13.227Z,31.61
2022-09-13T12:24:47.132Z,31.07
2022-09-13T12:27:28.383Z,30.73
2022-09-13T12:30:17.343Z,30.27
2022-09-13T12:32:47.850Z,30.37
2022-09-13T12:35:28.866Z,30.67
2022-09-13T12:38:32.268Z,30.71
2022-09-13T12:41:35.989Z,30.33
2022-09-13T12:44:41.229Z,30.97
2022-09-13T12:47:54.892Z,30.33
2022-09-13T12:50:46.011Z,30.16
2022-09-13T12:54:00.400Z,30.17
2022-09-13T12:57:02.982Z,29.79
2022-09-13T13:00:13.098Z,30.27
2022-09-13T13:02:54.451Z,30.57
2022-09-13T13:05:32.441Z,30.37
2022-09-13T13:08:06.231Z,30.58
2022-09-13T13:10:38.147Z,31.01
2022-09-13T13:13:15.008Z,31.05
2022-09-13T13:16:04.590Z,31.46
2022-09-13T13:18:45.027Z,30.82
2022-09-13T13:21:40.865Z,31.08
2022-09-13T13:24:47.969Z,31.49
2022-09-13T13:27:48.070Z,31.34
2022-09-13T13:30:51.242Z,31.18
2022-09-13T13:33:23.443Z,31.35
2022-09-13T13:35:51.672Z,30.76
2022-09-13T13:38:47.758Z,30.55
2022-09-13T13:41:40.510Z,30.58
2022-09-13T13:44:57.992Z,30.01
2022-09-13T13:48:10.765Z,29.32
2022-09-13T13:51:29.289Z,29.34
2022-09-13T13:54:04.465Z,28.80
2022-09-13T13:56:48.535Z,29.31
2022-09-13T13:59:25.052Z,29.56
2022-09-13T14:01:59.279Z,30.20
2022-09-13T14:05:09.267Z,29.75
2022-09-13T14:08:20.909Z,29.96
2022-09-13T14:11:01.655Z,30.46
2022-09-13T14:13:49.850Z,30.88
2022-09-13T14:16:37.258Z,31.28
2022-09-13T14:19:23.861Z,31.57
2022-09-13T14:22:15.639Z,31.60
2022-09-13T14:24:46.494Z,31.48
2022-09-13T14:27:23.659Z,31.54
2022-09-13T14:29:55.372Z,31.41
2022-09-13T14:32:31.574Z,31.41
2022-09-13T14:35:06.637Z,31.52
2022-09-13T14:37:38.105Z,31.86
2022-09-13T14:40:18.432Z,32.05
2022-09-13T14:42:49.813Z,32.08
2022-09-13T14:45:21.627Z,32.63
2022-09-13T14:47:56.875Z,32.26
2022-09-13T14:50:30.019Z,32.25
2022-09-13T14:53:01.002Z,32.26
2022-09-13T14:55:33.010Z,31.88
2022-09-13T14:58:06.120Z,31.69
2022-09-13T15:00:45.500Z,31.84
2022-09-13T15:03:16.853Z,31.78
2022-09-13T15:05:53.460Z,32.05
2022-09-13T15:08:45.073Z,32.78
2022-09-13T15:11:28.855Z,33.40
2022-09-13T15:14:23.161Z,33.89
2022-09-13T15:16:53.585Z,33.94
2022-09-13T15:19:40.857Z,34.37
2022-09-13T15:22:31.810Z,34.75
2022-09-13T15:25:02.278Z,35.32
2022-09-13T15:27:42.730Z,35.45
2022-09-13T15:30:24.045Z,35.82
2022-09-13T15:33:06.681Z,35.81
2022-09-13T15:35:38.526Z,35.32
2022-09-13T15:38:21.390Z,35.57
2022-09-13T15:41:01.626Z,35.07
2022-09-13T15:43:30.947Z,34.81
2022-09-13T15:46:01.975Z,34.58
2022-09-13T15:48:32.005Z,34.79
2022-09-13T15:51:11.444Z,35.30
2022-09-13T15:53:40.959Z,35.35
2022-09-13T15:56:13.407Z,35.78
2022-09-13T15:58:40.690Z,35.79
2022-09-13T16:01:12.806Z,35.56
2022-09-13T16:03:40.507Z,36.16
2022-09-13T16:06:09.506Z,35.67
2022-09-13T16:08:37.769Z,36.15
2022-09-13T16:11:06.031Z,36.37
2022-09-13T16:13:33.776Z,36.41
2022-09-13T16:16:01.666Z,36.49
2022-09-13T16:18:30.701Z,36.53
2022-09-13T16:20:57.930Z,37.14
2022-09-13T16:23:25.284Z,37.07
2022-09-13T16:25:58.233Z,37.38
2022-09-13T16:28:26.537Z,37.02
2022-09-13T16:30:54.540Z,37.47
2022-09-13T16:33:21.997Z,37.47
2022-09-13T16:35:50.628Z,37.53
2022-09-13T16:38:18.306Z,37.48
2022-09-13T16:40:45.615Z,37.02
2022-09-13T16:43:13.612Z,37.26
2022-09-13T16:45:42.093Z,36.99
2022-09-13T16:48:09.680Z,36.91
2022-09-13T16:50:40.466Z,36.80
2022-09-13T16:53:09.486Z,36.95
2022-09-13T16:55:36.961Z,36.65
2022-09-13T16:58:04.551Z,37.15
2022-09-13T17:00:32.046Z,36.65
2022-09-13T17:02:59.497Z,37.19
2022-09-13T17:05:27.846Z,37.16
2022-09-13T17:07:55.183Z,36.94
2022-09-13T17:10:24.196Z,37.53
2022-09-13T17:12:51.793Z,36.95
2022-09-13T17:15:19.206Z,36.82
2022-09-13T17:17:46.496Z,37.42
2022-09-13T17:20:14.829Z,36.94
2022-09-13T17:22:42.318Z,36.99
2022-09-13T17:25:10.654Z,37.46
2022-09-13T17:27:39.368Z,37.64
2022-09-13T17:30:08.822Z,37.46
2022-09-13T17:32:36.147Z,37.67
2022-09-13T17:35:04.152Z,37.31
2022-09-13T17:37:31.547Z,37.02
2022-09-13T17:39:59.295Z,37.20
2022-09-13T17:42:27.151Z,37.69
2022-09-13T17:44:55.889Z,37.04
2022-09-13T17:47:23.299Z,37.13
2022-09-13T17:49:50.659Z,37.12
2022-09-13T17:52:17.941Z,37.77
2022-09-13T17:54:46.464Z,37.60
2022-09-13T17:57:15.585Z,37.90
2022-09-13T17:59:43.047Z,37.54
2022-09-13T18:02:11.805Z,37.55
2022-09-13T18:04:39.037Z,37.82
2022-09-13T18:07:06.670Z,38.05
2022-09-13T18:09:33.942Z,38.33
2022-09-13T18:12:01.938Z,37.82
2022-09-13T18:14:29.242Z,38.01
2022-09-13T18:16:57.962Z,38.50
2022-09-13T18:19:44.970Z,38.54
2022-09-13T18:22:13.612Z,38.67
2022-09-13T18:24:40.886Z,38.32
2022-09-13T18:27:08.236Z,38.87
2022-09-13T18:29:35.579Z,38.75
2022-09-13T18:32:03.016Z,38.79
2022-09-13T18:34:31.655Z,38.70
2022-09-13T18:36:58.907Z,38.65
2022-09-13T18:39:26.187Z,39.28
2022-09-13T18:41:53.505Z,39.51
2022-09-13T18:44:20.790Z,39.64
2022-09-13T18:46:49.223Z,39.20
2022-09-13T18:49:18.378Z,39.27
2022-09-13T18:51:47.057Z,39.62
2022-09-13T18:54:17.660Z,39.42
2022-09-13T18:56:45.631Z,39.74
2022-09-13T18:59:13.454Z,39.84
2022-09-13T19:01:43.785Z,39.59
2022-09-13T19:04:13.873Z,39.64
2022-09-13T19:06:43.636Z,39.85
2022-09-13T19:09:14.423Z,39.85
2022-09-13T19:11:47.225Z,40.16
2022-09-13T19:14:16.426Z,39.96
2022-09-13T19:16:44.201Z,40.54
2022-09-13T19:19:11.694Z,40.89
2022-09-13T19:21:39.287Z,41.22
2022-09-13T19:24:10.903Z,40.92
2022-09-13T19:26:44.575Z,41.08
2022-09-13T19:29:16.487Z,41.07
2022-09-13T19:31:48.365Z,41.11
2022-09-13T19:34:17.470Z,41.33
2022-09-13T19:36:45.601Z,41.33
2022-09-13T19:39:13.253Z,41.35
2022-09-13T19:41:42.340Z,41.75
2022-09-13T19:44:13.051Z,41.64
2022-09-13T19:46:42.348Z,41.89
2022-09-13T19:49:15.868Z,41.73
2022-09-13T19:51:49.981Z,41.79
2022-09-13T19:54:19.520Z,42.26
2022-09-13T19:56:48.351Z,42.05
2022-09-13T19:59:19.880Z,41.98
2022-09-13T20:01:48.352Z,42.37
2022-09-13T20:04:18.406Z,42.44
2022-09-13T20:06:48.433Z,42.36
2022-09-13T20:09:18.373Z,42.86
2022-09-13T20:11:48.773Z,42.73
2022-09-13T20:14:18.619Z,42.90
2022-09-13T20:16:46.913Z,43.09
2022-09-13T20:19:39.770Z,43.01
2022-09-13T20:22:06.965Z,42.87
2022-09-13T20:24:34.342Z,42.87
2022-09-13T20:27:02.967Z,43.04
2022-09-13T20:29:31.591Z,43.35
2022-09-13T20:31:59.904Z,43.16
2022-09-13T20:34:27.427Z,43.38
2022-09-13T20:36:54.839Z,43.52
2022-09-13T20:39:22.084Z,44.18
2022-09-13T20:41:50.057Z,43.77
2022-09-13T20:44:18.906Z,43.81
2022-09-13T20:46:46.263Z,43.68
2022-09-13T20:49:13.553Z,43.68
2022-09-13T20:51:40.876Z,44.05
2022-09-13T20:54:08.427Z,43.94
2022-09-13T20:56:36.212Z,44.03
2022-09-13T20:59:04.826Z,44.07
2022-09-13T21:01:34.311Z,44.04
2022-09-13T21:04:03.574Z,43.92
2022-09-13T21:06:39.135Z,44.26
2022-09-13T21:09:06.610Z,44.37
2022-09-13T21:11:36.768Z,44.18
2022-09-13T21:14:08.149Z,44.33
2022-09-13T21:16:40.809Z,44.39
2022-09-13T21:19:09.319Z,44.59
2022-09-13T21:21:40.588Z,44.63
2022-09-13T21:24:11.608Z,44.86
2022-09-13T21:26:43.342Z,44.97
2022-09-13T21:29:12.380Z,44.82
2022-09-13T21:31:41.067Z,45.06
2022-09-13T21:34:14.512Z,44.91
2022-09-13T21:36:43.078Z,45.06
2022-09-13T21:39:10.601Z,45.09
2022-09-13T21:41:38.259Z,45.37
2022-09-13T21:44:05.826Z,45.23
2022-09-13T21:46:36.004Z,45.09
2022-09-13T21:49:08.112Z,45.24
2022-09-13T21:51:37.731Z,45.59
2022-09-13T21:54:08.574Z,45.72
2022-09-13T21:56:38.600Z,45.87
2022-09-13T21:59:11.710Z,45.77
2022-09-13T22:01:41.628Z,46.09
2022-09-13T22:04:16.610Z,45.70
2022-09-13T22:06:45.422Z,46.29
2022-09-13T22:09:14.985Z,46.07
2022-09-13T22:11:46.097Z,45.69
2022-09-13T22:14:18.616Z,45.70
2022-09-13T22:16:46.822Z,45.74
2022-09-13T22:19:18.648Z,45.69
2022-09-13T22:21:49.885Z,45.85
2022-09-13T22:24:19.895Z,46.48
2022-09-13T22:26:50.053Z,46.56
2022-09-13T22:29:18.613Z,46.80
2022-09-13T22:31:48.470Z,46.33
2022-09-13T22:34:19.871Z,46.51
2022-09-13T22:36:47.672Z,46.22
2022-09-13T22:39:17.513Z,46.54
2022-09-13T22:41:45.614Z,45.99
2022-09-13T22:44:13.099Z,45.68
2022-09-13T22:46:42.550Z,46.03
2022-09-13T22:49:13.771Z,45.73
2022-09-13T22:51:45.018Z,46.01
2022-09-13T22:54:13.470Z,46.40
2022-09-13T22:56:41.324Z,45.94
2022-09-13T22:59:14.579Z,46.45
2022-09-13T23:01:42.766Z,46.21
2022-09-13T23:04:10.541Z,46.40
2022-09-13T23:06:38.651Z,46.75
2022-09-13T23:09:08.691Z,46.51
2022-09-13T23:11:38.889Z,46.75
2022-09-13T23:14:09.924Z,46.79
2022-09-13T23:16:40.936Z,46.95
2022-09-13T23:19:09.904Z,46.88
2022-09-13T23:21:37.927Z,47.69
2022-09-13T23:24:11.557Z,47.20
2022-09-13T23:26:39.901Z,47.24
2022-09-13T23:29:07.879Z,47.26
2022-09-13T23:31:38.878Z,47.31
2022-09-13T23:34:09.599Z,47.60
2022-09-13T23:36:39.734Z,47.57
2022-09-13T23:39:13.988Z,47.81
2022-09-13T23:41:41.339Z,47.74
2022-09-13T23:44:08.830Z,47.62
2022-09-13T23:46:36.260Z,47.67
2022-09-13T23:49:04.123Z,48.03
2022-09-13T23:51:31.892Z,48.48
2022-09-13T23:54:00.984Z,48.32
2022-09-13T23:56:32.984Z,48.69
2022-09-13T23:59:02.408Z,48.24
